createdAt,value
2022-11-10T00:00:58.641Z,5.83
2022-11-10T00:03:44.010Z,5.81
2022-11-10T00:06:29.586Z,5.80
2022-11-10T00:09:15.254Z,5.79
2022-11-10T00:12:00.898Z,5.80
2022-11-10T00:15:04.978Z,5.78
2022-11-10T00:17:50.254Z,5.77
2022-11-10T00:20:35.697Z,5.77
2022-11-10T00:23:21.268Z,5.76
2022-11-10T00:26:14.985Z,5.75
2022-11-10T00:29:00.463Z,5.74
2022-11-10T00:31:46.037Z,5.73
2022-11-10T00:34:31.481Z,5.72
2022-11-10T00:37:16.790Z,5.67
2022-11-10T00:40:02.291Z,5.69
2022-11-10T00:42:47.543Z,5.66
2022-11-10T00:45:33.087Z,5.60
2022-11-10T00:48:18.604Z,5.57
2022-11-10T00:51:04.296Z,5.55
2022-11-10T00:53:50.102Z,5.52
2022-11-10T00:56:35.449Z,5.51
2022-11-10T00:59:20.875Z,5.49
2022-11-10T01:02:06.801Z,5.47
2022-11-10T01:04:52.356Z,5.46
2022-11-10T01:07:37.857Z,5.43
2022-11-10T01:10:23.276Z,5.41
2022-11-10T01:13:09.254Z,5.40
2022-11-10T01:15:54.516Z,5.39
2022-11-10T01:18:40.041Z,5.38
2022-11-10T01:21:26.296Z,5.34
2022-11-10T01:24:11.570Z,5.34
2022-11-10T01:26:57.251Z,5.33
2022-11-10T01:29:42.686Z,5.32
2022-11-10T01:32:28.343Z,5.32
2022-11-10T01:35:13.605Z,5.31
2022-11-10T01:37:59.156Z,5.28
2022-11-10T01:40:45.067Z,5.26
2022-11-10T01:43:30.731Z,5.23
2022-11-10T01:46:16.522Z,5.23
2022-11-10T01:49:02.371Z,5.22
2022-11-10T01:51:53.739Z,5.21
2022-11-10T01:54:41.352Z,5.21
2022-11-10T01:57:26.792Z,5.18
2022-11-10T02:00:12.606Z,5.15
2022-11-10T02:03:02.240Z,5.13
2022-11-10T02:05:47.266Z,5.11
2022-11-10T02:08:32.598Z,5.09
2022-11-10T02:11:17.820Z,5.08
2022-11-10T02:14:03.502Z,5.08
2022-11-10T02:16:48.931Z,5.06
2022-11-10T02:19:40.651Z,5.10
2022-11-10T02:22:26.386Z,5.10
2022-11-10T02:25:13.938Z,5.10
2022-11-10T02:27:59.291Z,5.10
2022-11-10T02:30:44.965Z,5.10
2022-11-10T02:33:30.460Z,5.09
2022-11-10T02:36:16.040Z,5.08
2022-11-10T02:39:01.534Z,5.06
2022-11-10T02:41:46.955Z,5.05
2022-11-10T02:44:32.561Z,5.02
2022-11-10T02:47:17.546Z,5.01
2022-11-10T02:50:03.029Z,5.00
2022-11-10T02:52:48.265Z,5.00
2022-11-10T02:55:33.575Z,4.99
2022-11-10T02:58:19.161Z,5.00
2022-11-10T03:01:05.907Z,5.00
2022-11-10T03:03:51.419Z,5.00
2022-11-10T03:06:36.835Z,5.02
2022-11-10T03:09:22.218Z,5.05
2022-11-10T03:12:07.836Z,5.08
2022-11-10T03:14:53.204Z,5.11
2022-11-10T03:17:38.827Z,5.16
2022-11-10T03:20:24.249Z,5.20
2022-11-10T03:23:09.538Z,5.24
2022-11-10T03:25:54.939Z,5.29
2022-11-10T03:28:40.364Z,5.31
2022-11-10T03:31:25.971Z,5.37
2022-11-10T03:34:11.423Z,5.39
2022-11-10T03:36:56.747Z,5.42
2022-11-10T03:39:42.047Z,5.44
2022-11-10T03:42:27.587Z,5.44
2022-11-10T03:45:13.761Z,5.48
2022-11-10T03:47:59.169Z,5.51
2022-11-10T03:50:44.640Z,5.52
2022-11-10T03:53:29.736Z,5.54
2022-11-10T03:56:15.270Z,5.55
2022-11-10T03:59:00.760Z,5.56
2022-11-10T04:01:46.203Z,5.57
2022-11-10T04:04:50.365Z,5.57
2022-11-10T04:07:54.379Z,5.58
2022-11-10T04:10:39.897Z,5.59
2022-11-10T04:13:44.066Z,5.59
2022-11-10T04:16:29.554Z,5.59
2022-11-10T04:19:15.030Z,5.61
2022-11-10T04:22:00.450Z,5.63
2022-11-10T04:24:45.847Z,5.65
2022-11-10T04:27:31.173Z,5.67
2022-11-10T04:30:16.603Z,5.67
2022-11-10T04:33:02.027Z,5.67
2022-11-10T04:35:47.332Z,5.65
2022-11-10T04:38:32.742Z,5.65
2022-11-10T04:41:17.936Z,5.65
2022-11-10T04:44:03.470Z,5.65
2022-11-10T04:46:49.572Z,5.63
2022-11-10T04:49:34.723Z,5.61
2022-11-10T04:52:20.245Z,5.60
2022-11-10T04:55:06.355Z,5.59
2022-11-10T04:57:51.787Z,5.58
2022-11-10T05:00:37.071Z,5.60
2022-11-10T05:03:22.955Z,5.63
2022-11-10T05:06:08.535Z,5.64
2022-11-10T05:08:54.092Z,5.64
2022-11-10T05:11:39.640Z,5.64
2022-11-10T05:14:25.236Z,5.64
2022-11-10T05:17:11.089Z,5.64
2022-11-10T05:19:56.745Z,5.64
2022-11-10T05:22:49.010Z,5.65
2022-11-10T05:25:35.985Z,5.65
2022-11-10T05:28:21.302Z,5.65
2022-11-10T05:31:07.002Z,5.65
2022-11-10T05:33:52.160Z,5.65
2022-11-10T05:36:37.651Z,5.66
2022-11-10T05:39:22.848Z,5.67
2022-11-10T05:42:08.331Z,5.69
2022-11-10T05:44:53.838Z,5.72
2022-11-10T05:47:39.557Z,5.75
2022-11-10T05:50:24.777Z,5.78
2022-11-10T05:53:10.457Z,5.80
2022-11-10T05:55:55.882Z,5.82
2022-11-10T05:58:41.411Z,5.83
2022-11-10T06:01:26.918Z,5.86
2022-11-10T06:04:12.417Z,5.87
2022-11-10T06:06:57.916Z,5.91
2022-11-10T06:09:43.308Z,5.94
2022-11-10T06:12:30.404Z,5.98
2022-11-10T06:15:16.973Z,6.00
2022-11-10T06:18:02.563Z,6.04
2022-11-10T06:20:47.980Z,6.08
2022-11-10T06:23:33.280Z,6.10
2022-11-10T06:26:18.830Z,6.13
2022-11-10T06:29:04.253Z,6.16
2022-11-10T06:31:49.611Z,6.20
2022-11-10T06:34:34.751Z,6.23
2022-11-10T06:37:20.279Z,6.28
2022-11-10T06:40:09.739Z,6.30
2022-11-10T06:42:54.910Z,6.34
2022-11-10T06:45:40.402Z,6.32
2022-11-10T06:48:25.748Z,6.37
2022-11-10T06:51:11.079Z,6.40
2022-11-10T06:53:56.533Z,6.43
2022-11-10T06:56:42.284Z,6.44
2022-11-10T06:59:28.168Z,6.44
2022-11-10T07:02:14.077Z,6.43
2022-11-10T07:04:59.512Z,6.43
2022-11-10T07:07:45.121Z,6.44
2022-11-10T07:10:30.911Z,6.45
2022-11-10T07:13:16.892Z,6.46
2022-11-10T07:16:06.394Z,6.49
2022-11-10T07:18:51.830Z,6.52
2022-11-10T07:21:36.921Z,6.56
2022-11-10T07:24:22.260Z,6.58
2022-11-10T07:27:08.349Z,6.60
2022-11-10T07:29:53.333Z,6.65
2022-11-10T07:32:38.878Z,6.69
2022-11-10T07:35:24.077Z,6.72
2022-11-10T07:38:10.919Z,6.76
2022-11-10T07:40:56.539Z,6.80
2022-11-10T07:43:42.099Z,6.83
2022-11-10T07:46:27.716Z,6.83
2022-11-10T07:49:16.479Z,6.91
2022-11-10T07:52:01.866Z,6.96
2022-11-10T07:54:47.266Z,7.01
2022-11-10T07:57:33.458Z,7.07
2022-11-10T08:00:19.094Z,7.14
2022-11-10T08:03:11.693Z,7.20
2022-11-10T08:05:57.032Z,7.21
2022-11-10T08:08:42.522Z,7.29
2022-11-10T08:11:27.840Z,7.34
2022-11-10T08:14:13.396Z,7.38
2022-11-10T08:16:58.619Z,7.42
2022-11-10T08:19:44.154Z,7.45
2022-11-10T08:22:29.523Z,7.47
2022-11-10T08:25:14.996Z,7.49
2022-11-10T08:28:01.418Z,7.50
2022-11-10T08:30:47.614Z,7.52
2022-11-10T08:33:32.964Z,7.54
2022-11-10T08:36:18.480Z,7.51
2022-11-10T08:39:04.112Z,7.56
2022-11-10T08:41:49.576Z,7.58
2022-11-10T08:44:34.986Z,7.57
2022-11-10T08:47:20.278Z,7.59
2022-11-10T08:50:06.914Z,7.62
2022-11-10T08:52:52.309Z,7.64
2022-11-10T08:55:37.885Z,7.65
2022-11-10T08:58:23.826Z,7.68
2022-11-10T09:01:10.133Z,7.72
2022-11-10T09:03:55.635Z,7.76
2022-11-10T09:06:41.093Z,7.79
2022-11-10T09:09:26.670Z,7.82
2022-11-10T09:12:11.976Z,7.83
2022-11-10T09:14:57.120Z,7.85
2022-11-10T09:17:42.284Z,7.86
2022-11-10T09:20:28.771Z,7.87
2022-11-10T09:23:19.055Z,7.89
2022-11-10T09:26:07.704Z,7.88
2022-11-10T09:28:53.066Z,7.88
2022-11-10T09:31:38.423Z,7.89
2022-11-10T09:34:23.876Z,7.91
2022-11-10T09:37:09.482Z,7.87
2022-11-10T09:41:09.146Z,7.94
2022-11-10T09:44:02.076Z,7.93
2022-11-10T09:46:57.929Z,7.93
2022-11-10T09:49:46.791Z,7.93
2022-11-10T09:52:33.268Z,7.93
2022-11-10T09:55:57.182Z,7.94
2022-11-10T09:58:43.423Z,7.94
2022-11-10T10:01:50.832Z,7.91
2022-11-10T10:05:04.400Z,7.90
2022-11-10T10:08:14.179Z,7.93
2022-11-10T10:11:14.751Z,7.94
2022-11-10T10:14:06.575Z,7.96
2022-11-10T10:17:10.936Z,7.98
2022-11-10T10:20:00.654Z,7.99
2022-11-10T10:22:55.601Z,7.97
2022-11-10T10:25:40.719Z,8.02
2022-11-10T10:28:33.701Z,8.03
2022-11-10T10:31:24.977Z,8.05
2022-11-10T10:34:12.839Z,8.04
2022-11-10T10:36:58.044Z,8.03
2022-11-10T10:39:45.021Z,8.03
2022-11-10T10:42:34.850Z,8.02
2022-11-10T10:45:29.146Z,8.01
2022-11-10T10:48:28.622Z,8.00
2022-11-10T10:51:28.780Z,8.01
2022-11-10T10:54:23.907Z,8.02
2022-11-10T10:57:25.670Z,8.04
2022-11-10T11:00:23.623Z,8.06
2022-11-10T11:03:14.229Z,8.06
2022-11-10T11:06:01.261Z,8.06
2022-11-10T11:09:00.353Z,8.05
2022-11-10T11:11:46.404Z,8.06
2022-11-10T11:14:32.051Z,8.05
2022-11-10T11:17:21.871Z,8.05
2022-11-10T11:20:13.527Z,8.01
2022-11-10T11:23:12.018Z,8.05
2022-11-10T11:26:00.935Z,8.04
2022-11-10T11:29:13.642Z,8.03
2022-11-10T11:32:29.219Z,8.03
2022-11-10T11:35:20.036Z,8.00
2022-11-10T11:38:11.264Z,7.98
2022-11-10T11:41:16.705Z,7.95
2022-11-10T11:44:01.813Z,7.91
2022-11-10T11:47:09.412Z,7.85
2022-11-10T11:50:19.843Z,7.85
2022-11-10T11:53:37.397Z,7.83
2022-11-10T11:56:31.177Z,7.83
2022-11-10T11:59:20.438Z,7.81
2022-11-10T12:02:28.647Z,7.86
2022-11-10T12:05:43.945Z,7.85
2022-11-10T12:09:03.674Z,7.82
2022-11-10T12:12:23.422Z,7.80
2022-11-10T12:15:21.977Z,7.80
2022-11-10T12:18:30.322Z,7.80
2022-11-10T12:21:21.456Z,7.77
2022-11-10T12:24:34.897Z,7.75
2022-11-10T12:27:29.048Z,7.72
2022-11-10T12:30:15.506Z,7.77
2022-11-10T12:33:04.542Z,7.77
2022-11-10T12:35:49.867Z,7.78
2022-11-10T12:38:42.117Z,7.79
2022-11-10T12:41:43.701Z,7.77
2022-11-10T12:44:32.766Z,7.74
2022-11-10T12:47:19.247Z,7.79
2022-11-10T12:50:16.728Z,7.78
2022-11-10T12:53:05.581Z,7.78
2022-11-10T12:56:02.704Z,7.78
2022-11-10T12:58:48.339Z,7.76
2022-11-10T13:01:33.810Z,7.76
2022-11-10T13:04:19.404Z,7.77
2022-11-10T13:07:10.231Z,7.77
2022-11-10T13:10:15.458Z,7.78
2022-11-10T13:13:03.877Z,7.80
2022-11-10T13:15:51.492Z,7.81
2022-11-10T13:18:36.679Z,7.82
2022-11-10T13:21:50.946Z,7.84
2022-11-10T13:24:40.847Z,7.84
2022-11-10T13:27:26.466Z,7.85
2022-11-10T13:30:39.040Z,7.88
2022-11-10T13:33:35.098Z,7.89
2022-11-10T13:36:42.734Z,7.92
2022-11-10T13:39:32.365Z,7.90
2022-11-10T13:42:23.380Z,7.94
2022-11-10T13:45:31.866Z,7.94
2022-11-10T13:48:17.400Z,7.93
2022-11-10T13:51:42.779Z,7.92
2022-11-10T13:54:49.905Z,7.94
2022-11-10T13:57:40.124Z,7.95
2022-11-10T14:00:33.227Z,7.95
2022-11-10T14:03:46.588Z,7.94
2022-11-10T14:06:45.670Z,7.93
2022-11-10T14:09:39.605Z,7.92
2022-11-10T14:12:45.545Z,7.92
2022-11-10T14:15:36.570Z,7.92
2022-11-10T14:18:25.179Z,7.92
2022-11-10T14:21:12.521Z,7.92
2022-11-10T14:24:04.336Z,7.92
2022-11-10T14:26:53.389Z,7.92
2022-11-10T14:29:40.049Z,7.90
2022-11-10T14:32:26.008Z,7.90
2022-11-10T14:35:24.786Z,7.91
2022-11-10T14:38:24.067Z,7.92
2022-11-10T14:41:15.525Z,7.92
2022-11-10T14:44:03.192Z,7.94
2022-11-10T14:46:48.569Z,7.95
2022-11-10T14:49:33.996Z,7.97
2022-11-10T14:52:19.126Z,7.98
2022-11-10T14:55:13.734Z,7.97
2022-11-10T14:58:18.253Z,7.97
2022-11-10T15:01:04.836Z,7.96
2022-11-10T15:03:50.523Z,7.96
2022-11-10T15:06:36.171Z,7.95
2022-11-10T15:09:29.729Z,7.94
2022-11-10T15:12:26.306Z,7.94
2022-11-10T15:15:22.078Z,7.92
2022-11-10T15:18:07.912Z,7.92
2022-11-10T15:21:03.979Z,7.89
2022-11-10T15:23:56.712Z,7.87
2022-11-10T15:26:41.743Z,7.87
2022-11-10T15:29:27.175Z,7.87
2022-11-10T15:32:16.408Z,7.87
2022-11-10T15:35:14.890Z,7.85
2022-11-10T15:38:09.456Z,7.85
2022-11-10T15:41:05.411Z,7.86
2022-11-10T15:43:50.749Z,7.88
2022-11-10T15:46:36.070Z,7.85
2022-11-10T15:49:36.938Z,7.89
2022-11-10T15:52:22.474Z,7.90
2022-11-10T15:55:22.754Z,7.90
2022-11-10T15:58:14.936Z,7.92
2022-11-10T16:01:01.105Z,7.94
2022-11-10T16:03:46.584Z,7.96
2022-11-10T16:06:32.562Z,7.97
2022-11-10T16:09:18.079Z,7.97
2022-11-10T16:12:04.051Z,7.96
2022-11-10T16:14:51.654Z,7.97
2022-11-10T16:17:37.090Z,7.92
2022-11-10T16:20:22.409Z,7.96
2022-11-10T16:23:07.857Z,7.97
2022-11-10T16:25:54.618Z,7.99
2022-11-10T16:28:42.040Z,8.00
2022-11-10T16:31:27.307Z,8.01
2022-11-10T16:34:13.839Z,8.02
2022-11-10T16:36:59.296Z,8.03
2022-11-10T16:39:44.874Z,8.04
2022-11-10T16:42:30.212Z,8.05
2022-11-10T16:45:20.818Z,8.06
2022-11-10T16:48:07.550Z,8.07
2022-11-10T16:50:54.236Z,8.04
2022-11-10T16:53:39.324Z,8.09
2022-11-10T16:56:26.788Z,8.09
2022-11-10T16:59:13.528Z,8.09
2022-11-10T17:01:58.950Z,8.01
2022-11-10T17:04:44.759Z,8.10
2022-11-10T17:07:30.360Z,8.11
2022-11-10T17:10:16.505Z,8.11
2022-11-10T17:13:02.229Z,8.11
2022-11-10T17:15:47.788Z,8.10
2022-11-10T17:18:33.882Z,8.08
2022-11-10T17:21:19.545Z,8.04
2022-11-10T17:24:05.130Z,8.01
2022-11-10T17:26:50.392Z,7.99
2022-11-10T17:29:36.017Z,7.98
2022-11-10T17:32:37.097Z,7.97
2022-11-10T17:35:26.970Z,7.97
2022-11-10T17:38:13.451Z,7.96
2022-11-10T17:40:58.933Z,7.95
2022-11-10T17:43:47.362Z,7.93
2022-11-10T17:46:32.750Z,7.93
2022-11-10T17:49:18.038Z,7.93
2022-11-10T17:52:03.945Z,7.95
2022-11-10T17:54:48.949Z,7.93
2022-11-10T17:57:34.937Z,7.97
2022-11-10T18:00:20.928Z,7.98
2022-11-10T18:03:08.728Z,8.00
2022-11-10T18:05:53.976Z,8.02
2022-11-10T18:08:39.110Z,8.00
2022-11-10T18:11:24.548Z,8.03
2022-11-10T18:14:11.157Z,8.04
2022-11-10T18:16:56.575Z,8.04
2022-11-10T18:19:42.116Z,8.03
2022-11-10T18:22:27.634Z,8.08
2022-11-10T18:25:13.095Z,8.09
2022-11-10T18:27:58.688Z,8.09
2022-11-10T18:30:44.081Z,8.10
2022-11-10T18:33:29.529Z,8.11
2022-11-10T18:36:15.157Z,8.10
2022-11-10T18:39:00.528Z,8.10
2022-11-10T18:41:48.921Z,8.14
2022-11-10T18:44:37.126Z,8.15
2022-11-10T18:47:22.588Z,8.15
2022-11-10T18:50:08.672Z,8.18
2022-11-10T18:52:53.714Z,8.19
2022-11-10T18:55:44.343Z,8.19
2022-11-10T18:58:30.952Z,8.19
2022-11-10T19:01:16.500Z,8.19
2022-11-10T19:04:01.888Z,8.19
2022-11-10T19:06:47.018Z,8.19
2022-11-10T19:09:32.204Z,8.16
2022-11-10T19:12:20.367Z,8.19
2022-11-10T19:15:08.692Z,8.17
2022-11-10T19:17:53.903Z,8.20
2022-11-10T19:20:39.475Z,8.21
2022-11-10T19:23:25.369Z,8.22
2022-11-10T19:26:17.898Z,8.22
2022-11-10T19:29:06.742Z,8.22
2022-11-10T19:31:51.959Z,8.22
2022-11-10T19:34:37.540Z,8.21
2022-11-10T19:37:22.963Z,8.21
2022-11-10T19:40:09.161Z,8.21
2022-11-10T19:42:54.271Z,8.17
2022-11-10T19:45:39.725Z,8.22
2022-11-10T19:48:25.391Z,8.21
2022-11-10T19:51:13.606Z,8.20
2022-11-10T19:54:05.006Z,8.19
2022-11-10T19:56:52.412Z,8.18
2022-11-10T19:59:37.751Z,8.16
2022-11-10T20:02:23.233Z,8.14
2022-11-10T20:05:16.191Z,8.14
2022-11-10T20:08:13.401Z,8.14
2022-11-10T20:11:05.151Z,8.15
2022-11-10T20:13:54.627Z,8.16
2022-11-10T20:16:40.324Z,8.16
2022-11-10T20:19:26.026Z,8.18
2022-11-10T20:22:12.793Z,8.19
2022-11-10T20:24:58.305Z,8.20
2022-11-10T20:27:44.296Z,8.20
2022-11-10T20:30:29.993Z,8.20
2022-11-10T20:33:15.605Z,8.20
2022-11-10T20:36:15.988Z,8.20
2022-11-10T20:39:04.644Z,8.21
2022-11-10T20:41:52.566Z,8.23
2022-11-10T20:44:38.154Z,8.24
2022-11-10T20:47:23.682Z,8.23
2022-11-10T20:50:14.785Z,8.23
2022-11-10T20:53:01.692Z,8.24
2022-11-10T20:55:54.320Z,8.25
2022-11-10T20:58:40.348Z,8.24
2022-11-10T21:01:25.700Z,8.23
2022-11-10T21:04:11.160Z,8.24
2022-11-10T21:06:56.391Z,8.23
2022-11-10T21:09:41.978Z,8.23
2022-11-10T21:12:46.086Z,8.23
2022-11-10T21:15:31.381Z,8.23
2022-11-10T21:18:17.224Z,8.24
2022-11-10T21:21:03.887Z,8.25
2022-11-10T21:23:57.075Z,8.27
2022-11-10T21:26:42.444Z,8.28
2022-11-10T21:29:28.107Z,8.28
2022-11-10T21:32:13.363Z,8.29
2022-11-10T21:34:58.573Z,8.30
2022-11-10T21:37:43.795Z,8.31
2022-11-10T21:40:30.348Z,8.32
2022-11-10T21:43:15.576Z,8.31
2022-11-10T21:46:05.987Z,8.32
2022-11-10T21:48:51.363Z,8.32
2022-11-10T21:51:36.788Z,8.33
2022-11-10T21:54:22.220Z,8.33
2022-11-10T21:58:13.798Z,8.35
2022-11-10T22:01:04.906Z,8.34
2022-11-10T22:03:50.513Z,8.33
2022-11-10T22:06:55.015Z,8.32
2022-11-10T22:09:58.936Z,8.31
2022-11-10T22:13:03.224Z,8.31
2022-11-10T22:16:07.794Z,8.32
2022-11-10T22:18:53.025Z,8.32
2022-11-10T22:21:38.441Z,8.32
2022-11-10T22:24:23.783Z,8.29
2022-11-10T22:27:09.205Z,8.30
2022-11-10T22:29:54.603Z,8.30
2022-11-10T22:32:39.924Z,8.28
2022-11-10T22:35:43.221Z,8.32
2022-11-10T22:38:33.638Z,8.33
2022-11-10T22:41:37.563Z,8.32
2022-11-10T22:44:25.193Z,8.32
2022-11-10T22:47:10.962Z,8.31
2022-11-10T22:49:56.577Z,8.31
2022-11-10T22:52:42.100Z,8.31
2022-11-10T22:55:27.414Z,8.30
2022-11-10T22:58:12.860Z,8.29
2022-11-10T23:01:11.376Z,8.29
2022-11-10T23:04:00.673Z,8.28
2022-11-10T23:06:46.229Z,8.27
2022-11-10T23:09:31.410Z,8.27
2022-11-10T23:12:16.779Z,8.26
2022-11-10T23:15:02.244Z,8.25
2022-11-10T23:17:47.734Z,8.27
2022-11-10T23:20:33.031Z,8.28
2022-11-10T23:23:18.192Z,8.27
2022-11-10T23:26:06.130Z,8.28
2022-11-10T23:28:52.531Z,8.29
2022-11-10T23:31:37.665Z,8.30
2022-11-10T23:34:22.931Z,8.31
2022-11-10T23:37:08.229Z,8.30
2022-11-10T23:39:53.631Z,8.29
2022-11-10T23:42:39.059Z,8.30
2022-11-10T23:45:29.794Z,8.30
2022-11-10T23:48:22.642Z,8.30
2022-11-10T23:51:10.466Z,8.28
2022-11-10T23:53:55.861Z,8.30
2022-11-10T23:56:41.379Z,8.29
2022-11-10T23:59:26.804Z,8.28
